createdAt,value
2022-12-19T00:01:38.861Z,101252.00
2022-12-19T00:04:11.445Z,101270.81
2022-12-19T00:06:43.872Z,101253.00
2022-12-19T00:09:14.221Z,101226.25
2022-12-19T00:11:43.200Z,101191.59
2022-12-19T00:14:12.684Z,101212.16
2022-12-19T00:16:41.353Z,101165.44
2022-12-19T00:19:12.255Z,101200.50
2022-12-19T00:21:40.847Z,101165.84
2022-12-19T00:24:20.628Z,101199.16
2022-12-19T00:26:51.033Z,101171.78
2022-12-19T00:29:22.596Z,101181.75
2022-12-19T00:31:53.398Z,101166.47
2022-12-19T00:34:21.923Z,101182.50
2022-12-19T00:36:50.650Z,101175.00
2022-12-19T00:39:19.383Z,101171.44
2022-12-19T00:41:48.139Z,101132.25
2022-12-19T00:44:17.107Z,101106.44
2022-12-19T00:46:51.514Z,101131.94
2022-12-19T00:49:22.125Z,101088.75
2022-12-19T00:51:50.809Z,101137.41
2022-12-19T00:54:19.645Z,101109.91
2022-12-19T00:56:49.094Z,101093.75
2022-12-19T00:59:18.922Z,101092.00
2022-12-19T01:01:58.276Z,101084.69
2022-12-19T01:04:29.151Z,101083.63
2022-12-19T01:07:02.290Z,101056.69
2022-12-19T01:09:36.298Z,101094.84
2022-12-19T01:12:25.118Z,101069.94
2022-12-19T01:15:03.822Z,101116.53
2022-12-19T01:17:43.980Z,101012.59
2022-12-19T01:20:15.964Z,101092.50
2022-12-19T01:22:45.749Z,101105.06
2022-12-19T01:25:16.127Z,101050.78
2022-12-19T01:27:44.703Z,101051.06
2022-12-19T01:30:13.981Z,101031.44
2022-12-19T01:32:44.148Z,101015.94
2022-12-19T01:35:21.327Z,101009.97
2022-12-19T01:37:58.763Z,101033.34
2022-12-19T01:40:37.838Z,101005.75
2022-12-19T01:43:07.289Z,101003.41
2022-12-19T01:45:43.861Z,100990.09
2022-12-19T01:48:44.062Z,100964.56
2022-12-19T01:51:20.759Z,100937.03
2022-12-19T01:53:58.548Z,100950.34
2022-12-19T01:56:37.892Z,100943.59
2022-12-19T01:59:11.599Z,100908.19
2022-12-19T02:01:51.885Z,100846.81
2022-12-19T02:04:29.482Z,100919.09
2022-12-19T02:07:15.609Z,100917.75
2022-12-19T02:09:52.469Z,100897.19
2022-12-19T02:12:38.851Z,100819.03
2022-12-19T02:15:11.108Z,100905.06
2022-12-19T02:17:51.345Z,100923.69
2022-12-19T02:20:46.783Z,100917.94
2022-12-19T02:23:18.157Z,100904.31
2022-12-19T02:26:20.764Z,100894.97
2022-12-19T02:29:02.618Z,100865.13
2022-12-19T02:31:37.627Z,100854.84
2022-12-19T02:34:24.452Z,100835.81
2022-12-19T02:37:12.125Z,100810.97
2022-12-19T02:39:49.921Z,100843.53
2022-12-19T02:42:27.720Z,100806.44
2022-12-19T02:45:04.219Z,100765.94
2022-12-19T02:47:35.335Z,100784.47
2022-12-19T02:50:06.507Z,100789.97
2022-12-19T02:52:35.612Z,100810.19
2022-12-19T02:55:10.709Z,100791.38
2022-12-19T02:58:10.703Z,100788.28
2022-12-19T03:01:11.412Z,100735.53
2022-12-19T03:04:19.633Z,100737.63
2022-12-19T03:07:06.552Z,100742.13
2022-12-19T03:09:57.061Z,100741.47
2022-12-19T03:12:31.701Z,100724.41
2022-12-19T03:15:02.285Z,100723.78
2022-12-19T03:17:37.315Z,100731.75
2022-12-19T03:20:12.124Z,100713.06
2022-12-19T03:22:40.734Z,100710.06
2022-12-19T03:25:10.383Z,100684.69
2022-12-19T03:27:40.962Z,100705.91
2022-12-19T03:30:13.448Z,100697.34
2022-12-19T03:32:45.393Z,100704.50
2022-12-19T03:35:23.493Z,100706.47
2022-12-19T03:37:59.872Z,100700.53
2022-12-19T03:40:33.993Z,100670.38
2022-12-19T03:43:11.257Z,100661.81
2022-12-19T03:46:11.178Z,100690.75
2022-12-19T03:48:50.172Z,100655.34
2022-12-19T03:51:28.412Z,100661.78
2022-12-19T03:54:08.731Z,100667.22
2022-12-19T03:56:58.621Z,100677.72
2022-12-19T04:00:08.300Z,100658.81
2022-12-19T04:02:50.747Z,100658.25
2022-12-19T04:05:26.170Z,100608.91
2022-12-19T04:08:02.151Z,100619.56
2022-12-19T04:10:31.340Z,100619.69
2022-12-19T04:13:24.407Z,100639.06
2022-12-19T04:16:04.871Z,100538.59
2022-12-19T04:18:35.764Z,100605.47
2022-12-19T04:21:30.807Z,100627.22
2022-12-19T04:24:06.975Z,100612.72
2022-12-19T04:26:37.530Z,100630.13
2022-12-19T04:29:08.747Z,100608.59
2022-12-19T04:31:38.627Z,100525.31
2022-12-19T04:34:07.499Z,100571.44
2022-12-19T04:36:36.285Z,100590.63
2022-12-19T04:39:05.269Z,100604.56
2022-12-19T04:41:34.231Z,100566.44
2022-12-19T04:44:02.797Z,100602.13
2022-12-19T04:46:31.711Z,100594.34
2022-12-19T04:49:00.476Z,100583.94
2022-12-19T04:51:29.248Z,100576.31
2022-12-19T04:53:58.315Z,100590.34
2022-12-19T04:56:26.891Z,100550.59
2022-12-19T04:59:00.295Z,100571.47
2022-12-19T05:01:29.072Z,100561.97
2022-12-19T05:04:04.098Z,100466.66
2022-12-19T05:06:33.573Z,100549.97
2022-12-19T05:09:02.515Z,100512.72
2022-12-19T05:11:31.175Z,100522.31
2022-12-19T05:14:00.654Z,100527.59
2022-12-19T05:16:29.648Z,100548.44
2022-12-19T05:18:58.466Z,100536.31
2022-12-19T05:21:27.256Z,100515.59
2022-12-19T05:23:56.055Z,100509.59
2022-12-19T05:26:25.056Z,100494.84
2022-12-19T05:28:54.063Z,100448.06
2022-12-19T05:31:23.110Z,100515.72
2022-12-19T05:33:52.459Z,100514.91
2022-12-19T05:36:21.182Z,100528.78
2022-12-19T05:38:52.164Z,100499.34
2022-12-19T05:41:21.845Z,100500.31
2022-12-19T05:43:52.742Z,100507.28
2022-12-19T05:46:22.465Z,100509.06
2022-12-19T05:48:51.549Z,100514.34
2022-12-19T05:51:21.532Z,100480.63
2022-12-19T05:53:50.374Z,100493.69
2022-12-19T05:56:21.277Z,100375.09
2022-12-19T05:58:50.885Z,100482.50
2022-12-19T06:01:22.779Z,100511.97
2022-12-19T06:03:52.541Z,100494.69
2022-12-19T06:06:26.220Z,100471.34
2022-12-19T06:09:00.263Z,100472.19
2022-12-19T06:11:29.136Z,100482.59
2022-12-19T06:13:58.128Z,100441.06
2022-12-19T06:16:26.968Z,100272.44
2022-12-19T06:18:55.851Z,100489.50
2022-12-19T06:21:25.368Z,100460.97
2022-12-19T06:23:55.549Z,100454.88
2022-12-19T06:26:24.546Z,100470.47
2022-12-19T06:28:54.142Z,100450.50
2022-12-19T06:31:25.660Z,100441.91
2022-12-19T06:33:56.034Z,100452.25
2022-12-19T06:36:30.159Z,100451.38
2022-12-19T06:38:59.213Z,100466.94
2022-12-19T06:41:47.077Z,100469.50
2022-12-19T06:44:18.004Z,100450.47
2022-12-19T06:46:49.633Z,100453.06
2022-12-19T06:49:18.369Z,100449.59
2022-12-19T06:51:47.781Z,100400.22
2022-12-19T06:54:16.760Z,100413.22
2022-12-19T06:56:45.658Z,100451.25
2022-12-19T06:59:16.652Z,100416.66
2022-12-19T07:02:13.011Z,100453.88
2022-12-19T07:04:47.260Z,100431.38
2022-12-19T07:07:15.969Z,100443.47
2022-12-19T07:09:44.893Z,100439.16
2022-12-19T07:12:15.759Z,100440.88
2022-12-19T07:14:53.016Z,100369.13
2022-12-19T07:17:25.083Z,100466.81
2022-12-19T07:19:59.221Z,100382.94
2022-12-19T07:22:34.177Z,100417.47
2022-12-19T07:25:04.936Z,100378.56
2022-12-19T07:27:36.069Z,100425.22
2022-12-19T07:30:06.769Z,100426.06
2022-12-19T07:32:36.403Z,100399.25
2022-12-19T07:35:05.520Z,100346.53
2022-12-19T07:37:34.094Z,100436.41
2022-12-19T07:40:02.812Z,100446.75
2022-12-19T07:42:32.871Z,100387.94
2022-12-19T07:45:02.090Z,100398.34
2022-12-19T07:47:30.817Z,100396.56
2022-12-19T07:49:59.758Z,100416.41
2022-12-19T07:52:28.798Z,100393.94
2022-12-19T07:54:57.272Z,100366.28
2022-12-19T07:57:25.975Z,100435.44
2022-12-19T07:59:54.826Z,100380.97
2022-12-19T08:02:23.733Z,100338.63
2022-12-19T08:04:53.693Z,100387.81
2022-12-19T08:07:22.470Z,100417.22
2022-12-19T08:09:51.109Z,100358.38
2022-12-19T08:12:19.875Z,100380.88
2022-12-19T08:14:52.794Z,100342.81
2022-12-19T08:17:24.625Z,100340.22
2022-12-19T08:19:55.716Z,100363.53
2022-12-19T08:22:24.313Z,100372.94
2022-12-19T08:24:53.347Z,100376.41
2022-12-19T08:27:22.133Z,100355.69
2022-12-19T08:29:53.479Z,100364.25
2022-12-19T08:32:22.542Z,100389.28
2022-12-19T08:34:51.499Z,100361.63
2022-12-19T08:37:20.089Z,100333.03
2022-12-19T08:39:51.319Z,100328.69
2022-12-19T08:42:20.213Z,100335.59
2022-12-19T08:44:48.848Z,100336.38
2022-12-19T08:47:17.885Z,100364.88
2022-12-19T08:49:46.543Z,100367.50
2022-12-19T08:52:17.725Z,100380.47
2022-12-19T08:54:46.727Z,100290.66
2022-12-19T08:57:16.152Z,100333.84
2022-12-19T08:59:45.305Z,100363.13
2022-12-19T09:02:17.018Z,100364.00
2022-12-19T09:05:59.965Z,100350.06
2022-12-19T09:07:37.864Z,100358.72
2022-12-19T09:10:08.725Z,100283.72
2022-12-19T09:12:40.622Z,100337.19
2022-12-19T09:15:12.085Z,100356.13
2022-12-19T09:17:41.109Z,100350.91
2022-12-19T09:20:19.647Z,100342.34
2022-12-19T09:22:51.675Z,100337.19
2022-12-19T09:25:20.480Z,100331.19
2022-12-19T09:28:25.964Z,100314.78
2022-12-19T09:30:38.127Z,100305.28
2022-12-19T09:33:09.263Z,100333.81
2022-12-19T09:35:38.463Z,100345.13
2022-12-19T09:38:07.383Z,100356.28
2022-12-19T09:40:58.287Z,100271.78
2022-12-19T09:43:45.365Z,100347.69
2022-12-19T09:46:21.578Z,100361.59
2022-12-19T09:48:55.471Z,100359.88
2022-12-19T09:51:36.555Z,100356.41
2022-12-19T09:54:21.476Z,100316.66
2022-12-19T09:56:54.845Z,100257.13
2022-12-19T09:59:49.722Z,100347.81
2022-12-19T10:02:40.950Z,100329.69
2022-12-19T10:05:42.894Z,100332.25
2022-12-19T10:08:19.317Z,100297.72
2022-12-19T10:12:36.465Z,100337.47
2022-12-19T10:13:59.359Z,100321.91
2022-12-19T10:16:39.977Z,100322.78
2022-12-19T10:19:16.217Z,100295.16
2022-12-19T10:22:18.182Z,100326.28
2022-12-19T10:25:00.535Z,100311.59
2022-12-19T10:28:00.019Z,100309.03
2022-12-19T10:30:34.255Z,100295.22
2022-12-19T10:33:30.418Z,100297.84
2022-12-19T10:36:03.073Z,100260.72
2022-12-19T10:38:50.307Z,100271.91
2022-12-19T10:41:27.899Z,100291.75
2022-12-19T10:44:06.329Z,100304.72
2022-12-19T10:46:51.519Z,100203.72
2022-12-19T10:49:31.765Z,100276.22
2022-12-19T10:52:05.540Z,100202.03
2022-12-19T10:54:40.243Z,100298.78
2022-12-19T10:57:23.998Z,100298.78
2022-12-19T11:00:04.831Z,100273.78
2022-12-19T11:02:54.326Z,100282.38
2022-12-19T11:05:25.641Z,100294.50
2022-12-19T11:08:32.258Z,100276.41
2022-12-19T11:13:17.636Z,100294.56
2022-12-19T11:19:23.208Z,100278.13
2022-12-19T11:21:53.445Z,100266.03
2022-12-19T11:29:17.678Z,100282.41
2022-12-19T11:29:33.110Z,100272.03
2022-12-19T11:29:36.581Z,100228.00
2022-12-19T11:30:45.892Z,100240.03
2022-12-19T11:34:25.125Z,100240.06
2022-12-19T11:37:18.237Z,100266.81
2022-12-19T11:39:57.568Z,100246.03
2022-12-19T11:42:26.299Z,100239.94
2022-12-19T11:45:08.492Z,100199.38
2022-12-19T11:47:46.667Z,100252.91
2022-12-19T11:50:23.782Z,100197.66
2022-12-19T11:53:19.177Z,100254.66
2022-12-19T11:55:56.928Z,100207.16
2022-12-19T11:58:30.450Z,100227.81
2022-12-19T12:01:42.562Z,100219.22
2022-12-19T12:04:42.542Z,100245.13
2022-12-19T12:07:52.064Z,100223.50
2022-12-19T12:13:33.016Z,100241.72
2022-12-19T12:21:57.678Z,100232.25
2022-12-19T12:29:39.833Z,100211.53
2022-12-19T12:31:10.129Z,100230.47
2022-12-19T12:31:14.620Z,100228.72
2022-12-19T12:31:49.898Z,100217.53
2022-12-19T12:32:04.343Z,100234.81
2022-12-19T12:35:46.392Z,100223.59
2022-12-19T12:42:06.557Z,100216.66
2022-12-19T12:44:46.114Z,100178.69
2022-12-19T12:47:46.009Z,100214.09
2022-12-19T12:50:19.120Z,100199.41
2022-12-19T12:52:52.302Z,100193.38
2022-12-19T12:55:36.284Z,100194.25
2022-12-19T12:58:10.585Z,100177.00
2022-12-19T13:01:10.282Z,100216.69
2022-12-19T13:03:43.387Z,100199.41
2022-12-19T13:06:34.367Z,100223.59
2022-12-19T13:09:21.410Z,100191.63
2022-12-19T13:12:50.661Z,100209.72
2022-12-19T13:15:28.861Z,100225.28
2022-12-19T13:17:58.115Z,100194.22
2022-12-19T13:20:27.777Z,100218.34
2022-12-19T13:22:59.606Z,100209.66
2022-12-19T13:25:29.188Z,100214.00
2022-12-19T13:28:22.799Z,100212.28
2022-12-19T13:31:16.629Z,100217.44
2022-12-19T13:33:55.959Z,100210.50
2022-12-19T13:39:54.399Z,100206.19
2022-12-19T13:40:12.373Z,100201.00
2022-12-19T13:43:17.691Z,100210.53
2022-12-19T13:45:54.005Z,100206.28
2022-12-19T13:48:37.262Z,100173.38
2022-12-19T13:51:12.147Z,100193.25
2022-12-19T13:53:43.724Z,100197.53
2022-12-19T13:56:18.742Z,100171.66
2022-12-19T13:59:03.712Z,100190.59
2022-12-19T14:01:38.354Z,100163.00
2022-12-19T14:04:09.329Z,100198.38
2022-12-19T14:06:46.661Z,100184.50
2022-12-19T14:11:29.807Z,100087.06
2022-12-19T14:13:43.659Z,100091.38
2022-12-19T14:15:51.893Z,100188.81
2022-12-19T14:18:44.720Z,100168.06
2022-12-19T14:22:04.417Z,100088.72
2022-12-19T14:24:25.900Z,100171.53
2022-12-19T14:28:18.425Z,100149.19
2022-12-19T14:30:30.510Z,100150.84
2022-12-19T14:33:47.343Z,100164.69
2022-12-19T14:36:06.919Z,100071.56
2022-12-19T14:39:21.193Z,100167.25
2022-12-19T14:41:49.359Z,100188.88
2022-12-19T14:52:25.933Z,100068.09
2022-12-19T14:52:34.499Z,100131.88
2022-12-19T14:54:05.765Z,100153.50
2022-12-19T14:54:37.410Z,100131.06
2022-12-19T14:56:37.539Z,100175.97
2022-12-19T15:02:03.245Z,100162.97
2022-12-19T15:04:56.205Z,100123.28
2022-12-19T15:07:31.696Z,100161.25
2022-12-19T15:11:05.008Z,100077.66
2022-12-19T15:14:55.374Z,100125.03
2022-12-19T15:16:30.118Z,100133.63
2022-12-19T15:19:01.251Z,100126.72
2022-12-19T15:21:31.936Z,100128.38
2022-12-19T15:24:00.584Z,100124.94
2022-12-19T15:26:35.713Z,100161.16
2022-12-19T15:29:15.450Z,100133.59
2022-12-19T15:31:49.424Z,100114.63
2022-12-19T15:34:35.399Z,100026.69
2022-12-19T15:37:05.010Z,100081.03
2022-12-19T15:39:34.019Z,100147.38
2022-12-19T15:42:03.410Z,100122.31
2022-12-19T15:44:40.993Z,100133.53
2022-12-19T15:47:32.536Z,100147.31
2022-12-19T15:50:08.542Z,100118.00
2022-12-19T15:52:37.603Z,100086.13
2022-12-19T15:55:07.170Z,100112.84
2022-12-19T15:57:39.269Z,100139.63
2022-12-19T16:00:19.355Z,100066.31
2022-12-19T16:05:37.787Z,100111.22
2022-12-19T16:08:21.003Z,100136.97
2022-12-19T16:11:01.163Z,100136.09
2022-12-19T16:13:35.500Z,100105.03
2022-12-19T16:16:13.021Z,100037.81
2022-12-19T16:18:46.097Z,100131.78
2022-12-19T16:21:20.683Z,100135.19
2022-12-19T16:23:51.073Z,100106.72
2022-12-19T16:26:41.270Z,100129.13
2022-12-19T16:29:29.272Z,100097.22
2022-12-19T16:31:58.557Z,100093.78
2022-12-19T16:34:28.065Z,100128.25
2022-12-19T16:36:58.638Z,100116.13
2022-12-19T16:39:27.947Z,100085.03
2022-12-19T16:41:57.588Z,100098.81
2022-12-19T16:44:26.333Z,100091.88
2022-12-19T16:46:55.210Z,100066.88
2022-12-19T16:49:24.331Z,100083.22
2022-12-19T16:51:53.875Z,100082.31
2022-12-19T16:54:23.444Z,100054.72
2022-12-19T16:56:55.169Z,100067.69
2022-12-19T16:59:28.344Z,100105.63
2022-12-19T17:01:58.211Z,100096.97
2022-12-19T17:04:28.461Z,100088.38
2022-12-19T17:06:57.657Z,99992.69
2022-12-19T17:09:26.940Z,100082.28
2022-12-19T17:12:01.138Z,100094.38
2022-12-19T17:14:35.614Z,100081.41
2022-12-19T17:17:04.708Z,99987.53
2022-12-19T17:19:42.571Z,100045.25
2022-12-19T17:22:18.912Z,99991.00
2022-12-19T17:24:49.544Z,100071.13
2022-12-19T17:27:19.896Z,100077.16
2022-12-19T17:29:52.210Z,100034.00
2022-12-19T17:32:24.551Z,100068.44
2022-12-19T17:34:54.371Z,100027.09
2022-12-19T17:37:26.550Z,100066.69
2022-12-19T17:39:55.788Z,100070.13
2022-12-19T17:42:28.742Z,100039.97
2022-12-19T17:45:00.159Z,100027.06
2022-12-19T17:47:30.584Z,100029.66
2022-12-19T17:50:00.284Z,100021.00
2022-12-19T17:52:30.374Z,100007.25
2022-12-19T17:54:58.993Z,100017.56
2022-12-19T17:57:27.978Z,99847.19
2022-12-19T17:59:56.799Z,100052.13
2022-12-19T18:02:27.725Z,100048.66
2022-12-19T18:04:59.222Z,100046.13
2022-12-19T18:07:28.143Z,99962.50
2022-12-19T18:09:57.485Z,99959.97
2022-12-19T18:12:27.260Z,100031.47
2022-12-19T18:14:56.036Z,100020.22
2022-12-19T18:17:26.982Z,99972.03
2022-12-19T18:19:56.354Z,100012.56
2022-12-19T18:22:25.543Z,100014.28
2022-12-19T18:24:54.961Z,100047.94
2022-12-19T18:27:23.922Z,100050.53
2022-12-19T18:29:52.763Z,100015.19
2022-12-19T18:32:22.439Z,100042.78
2022-12-19T18:34:54.586Z,100040.25
2022-12-19T18:37:23.651Z,99957.50
2022-12-19T18:39:56.301Z,100045.34
2022-12-19T18:42:24.974Z,100035.06
2022-12-19T18:44:53.736Z,100007.50
2022-12-19T18:47:24.340Z,100009.25
2022-12-19T18:49:53.493Z,100053.22
2022-12-19T18:52:22.273Z,100049.75
2022-12-19T18:54:51.077Z,100016.19
2022-12-19T18:57:19.674Z,100043.78
2022-12-19T18:59:49.325Z,100048.94
2022-12-19T19:02:28.836Z,100046.38
2022-12-19T19:04:57.724Z,100003.25
2022-12-19T19:07:26.690Z,100014.50
2022-12-19T19:09:55.807Z,100026.56
2022-12-19T19:12:44.831Z,100033.44
2022-12-19T19:15:13.486Z,100032.59
2022-12-19T19:17:43.043Z,100057.63
2022-12-19T19:20:12.337Z,100062.75
2022-12-19T19:22:41.187Z,100044.66
2022-12-19T19:25:10.507Z,100009.19
2022-12-19T19:27:40.730Z,99998.84
2022-12-19T19:30:11.884Z,100026.50
2022-12-19T19:32:53.130Z,100004.84
2022-12-19T19:35:22.671Z,100031.53
2022-12-19T19:37:57.205Z,99984.09
2022-12-19T19:40:25.884Z,99974.53
2022-12-19T19:42:54.967Z,100002.88
2022-12-19T19:45:24.304Z,100008.13
2022-12-19T19:47:56.226Z,99966.72
2022-12-19T19:50:25.518Z,99999.41
2022-12-19T19:52:54.939Z,99985.59
2022-12-19T19:55:24.725Z,99958.91
2022-12-19T19:57:53.980Z,99982.94
2022-12-19T20:00:23.603Z,99981.25
2022-12-19T20:02:53.646Z,99970.81
2022-12-19T20:05:22.720Z,99945.88
2022-12-19T20:07:51.758Z,99957.91
2022-12-19T20:10:20.851Z,99964.75
2022-12-19T20:12:49.520Z,99995.75
2022-12-19T20:15:18.661Z,99950.03
2022-12-19T20:17:47.589Z,99957.75
2022-12-19T20:20:16.660Z,99987.88
2022-12-19T20:22:45.367Z,100004.38
2022-12-19T20:25:14.193Z,99970.69
2022-12-19T20:27:42.899Z,99975.84
2022-12-19T20:30:12.669Z,99999.09
2022-12-19T20:32:41.259Z,99975.00
2022-12-19T20:35:14.548Z,99974.97
2022-12-19T20:37:43.980Z,99937.06
2022-12-19T20:40:13.661Z,99961.13
2022-12-19T20:42:42.689Z,99997.25
2022-12-19T20:45:11.429Z,99964.53
2022-12-19T20:47:40.241Z,99975.69
2022-12-19T20:50:09.535Z,99908.41
2022-12-19T20:52:38.567Z,99972.94
2022-12-19T20:55:10.628Z,99965.16
2022-12-19T20:57:39.579Z,99930.78
2022-12-19T21:00:09.576Z,99923.81
2022-12-19T21:03:00.634Z,99933.19
2022-12-19T21:05:27.885Z,99940.06
2022-12-19T21:07:59.166Z,99949.69
2022-12-19T21:10:27.802Z,99910.13
2022-12-19T21:12:56.925Z,99945.50
2022-12-19T21:15:26.025Z,99973.88
2022-12-19T21:17:54.679Z,99925.75
2022-12-19T21:20:23.443Z,99940.28
2022-12-19T21:22:52.143Z,99929.03
2022-12-19T21:25:21.227Z,99929.88
2022-12-19T21:27:49.999Z,99919.47
2022-12-19T21:30:19.691Z,99922.91
2022-12-19T21:32:48.559Z,99904.03
2022-12-19T21:35:17.217Z,99934.19
2022-12-19T21:37:50.706Z,99932.50
2022-12-19T21:40:21.030Z,99949.72
2022-12-19T21:42:49.778Z,99932.63
2022-12-19T21:45:18.862Z,99948.94
2022-12-19T21:47:47.815Z,99918.81
2022-12-19T21:50:16.871Z,99958.47
2022-12-19T21:52:45.945Z,99916.34
2022-12-19T21:55:14.560Z,99936.09
2022-12-19T21:57:44.028Z,99961.97
2022-12-19T22:00:14.503Z,99860.41
2022-12-19T22:03:01.525Z,99942.13
2022-12-19T22:05:32.220Z,99924.03
2022-12-19T22:08:01.573Z,99855.16
2022-12-19T22:10:31.356Z,99863.78
2022-12-19T22:13:00.499Z,99926.59
2022-12-19T22:15:29.260Z,99892.97
2022-12-19T22:17:57.702Z,99904.94
2022-12-19T22:20:26.420Z,99842.13
2022-12-19T22:22:55.314Z,99891.13
2022-12-19T22:25:24.071Z,99891.91
2022-12-19T22:27:55.924Z,99921.13
2022-12-19T22:30:24.457Z,99894.47
2022-12-19T22:32:53.248Z,99904.78
2022-12-19T22:35:21.714Z,99915.84
2022-12-19T22:37:50.493Z,99908.91
2022-12-19T22:40:19.824Z,99881.41
2022-12-19T22:42:49.232Z,99889.16
2022-12-19T22:45:18.670Z,99894.41
2022-12-19T22:47:48.480Z,99913.25
2022-12-19T22:50:17.109Z,99820.31
2022-12-19T22:52:46.319Z,99886.50
2022-12-19T22:55:15.020Z,99882.22
2022-12-19T22:57:43.874Z,99902.81
2022-12-19T23:00:15.395Z,99905.38
2022-12-19T23:02:46.552Z,99876.09
2022-12-19T23:05:15.536Z,99884.66
2022-12-19T23:07:44.972Z,99861.47
2022-12-19T23:10:13.938Z,99894.16
2022-12-19T23:12:42.706Z,99887.31
2022-12-19T23:15:11.821Z,99901.03
2022-12-19T23:17:40.618Z,99869.13
2022-12-19T23:20:09.958Z,99861.44
2022-12-19T23:22:38.859Z,99857.09
2022-12-19T23:25:08.322Z,99878.59
2022-12-19T23:27:37.100Z,99851.13
2022-12-19T23:30:12.272Z,99866.53
2022-12-19T23:32:44.230Z,99875.22
2022-12-19T23:35:18.486Z,99884.66
2022-12-19T23:37:47.995Z,99870.84
2022-12-19T23:40:16.968Z,99886.31
2022-12-19T23:42:45.808Z,99879.44
2022-12-19T23:45:14.627Z,99866.53
2022-12-19T23:47:43.522Z,99879.50
2022-12-19T23:50:12.951Z,99883.81
2022-12-19T23:52:42.679Z,99863.97
2022-12-19T23:55:12.239Z,99788.38
2022-12-19T23:57:41.056Z,99862.41
